createdAt,value
2019-05-22T00:04:44.230Z,2.90
2019-05-22T00:09:49.995Z,3.10
2019-05-22T00:14:54.526Z,3.42
2019-05-22T00:19:59.178Z,3.17
2019-05-22T00:25:05.330Z,2.87
2019-05-22T00:30:10.946Z,2.85
2019-05-22T00:35:16.674Z,2.87
2019-05-22T00:40:22.300Z,2.95
2019-05-22T00:45:28.039Z,3.02
2019-05-22T00:50:46.084Z,2.67
2019-05-22T00:55:52.333Z,3.40
2019-05-22T01:01:16.133Z,3.02
2019-05-22T01:06:21.980Z,2.75
2019-05-22T01:11:29.113Z,2.40
2019-05-22T01:16:33.186Z,2.92
2019-05-22T01:21:38.527Z,2.27
2019-05-22T01:26:44.017Z,2.90
2019-05-22T01:31:52.378Z,3.10
2019-05-22T01:36:57.566Z,2.52
2019-05-22T01:42:04.249Z,2.33
2019-05-22T01:47:15.498Z,2.17
2019-05-22T01:52:20.587Z,2.50
2019-05-22T01:57:25.149Z,2.47
2019-05-22T02:02:30.769Z,2.10
2019-05-22T02:07:35.601Z,2.10
2019-05-22T02:12:51.273Z,2.10
2019-05-22T02:17:56.609Z,2.65
2019-05-22T02:23:00.750Z,2.90
2019-05-22T02:28:06.486Z,2.98
2019-05-22T02:33:10.540Z,2.98
2019-05-22T02:38:15.713Z,2.85
2019-05-22T02:43:19.746Z,2.67
2019-05-22T02:48:25.981Z,2.62
2019-05-22T02:53:30.142Z,2.00
2019-05-22T02:58:35.676Z,2.30
2019-05-22T03:03:39.906Z,2.20
2019-05-22T03:08:59.909Z,2.10
2019-05-22T03:14:09.545Z,2.08
2019-05-22T03:19:18.116Z,2.20
2019-05-22T03:24:22.075Z,2.37
2019-05-22T03:29:29.587Z,2.10
2019-05-22T03:34:35.185Z,2.25
2019-05-22T03:39:40.107Z,2.40
2019-05-22T03:44:46.354Z,2.33
2019-05-22T03:49:51.295Z,4.37
2019-05-22T03:54:56.126Z,5.70
2019-05-22T04:00:00.582Z,5.83
2019-05-22T04:05:07.393Z,6.67
2019-05-22T04:10:13.815Z,5.67
2019-05-22T04:15:18.669Z,5.47
2019-05-22T04:20:23.325Z,5.30
2019-05-22T04:25:27.943Z,5.28
2019-05-22T04:30:31.985Z,5.60
2019-05-22T04:35:37.897Z,5.37
2019-05-22T04:40:47.060Z,5.55
2019-05-22T04:45:52.332Z,4.75
2019-05-22T04:50:58.579Z,5.30
2019-05-22T04:56:02.539Z,3.80
2019-05-22T05:01:08.201Z,4.58
2019-05-22T05:06:14.024Z,3.98
2019-05-22T05:11:19.377Z,4.17
2019-05-22T05:16:23.509Z,4.20
2019-05-22T05:21:28.190Z,3.85
2019-05-22T05:26:33.762Z,4.08
2019-05-22T05:31:37.882Z,4.03
2019-05-22T05:36:42.853Z,3.90
2019-05-22T05:41:46.932Z,4.00
2019-05-22T05:46:51.292Z,4.50
2019-05-22T05:51:56.432Z,4.90
2019-05-22T05:57:19.680Z,4.72
2019-05-22T06:02:23.893Z,4.40
2019-05-22T06:07:28.139Z,5.78
2019-05-22T06:12:32.101Z,5.60
2019-05-22T06:17:58.782Z,5.97
2019-05-22T06:23:24.192Z,5.60
2019-05-22T06:28:31.187Z,5.03
2019-05-22T06:33:39.090Z,4.70
2019-05-22T06:38:57.715Z,4.90
2019-05-22T06:44:33.617Z,5.00
2019-05-22T06:49:39.762Z,4.97
2019-05-22T06:54:43.987Z,5.28
2019-05-22T06:59:49.352Z,5.40
2019-05-22T07:04:53.690Z,4.65
2019-05-22T07:09:58.021Z,4.80
2019-05-22T07:15:09.459Z,5.28
2019-05-22T07:20:15.339Z,4.95
2019-05-22T07:25:20.207Z,5.20
2019-05-22T07:30:24.242Z,6.08
2019-05-22T07:35:44.172Z,5.97
2019-05-22T07:40:35.904Z,6.42
2019-05-22T07:45:40.305Z,6.22
2019-05-22T07:50:48.861Z,5.40
2019-05-22T07:55:54.112Z,4.75
2019-05-22T08:01:01.808Z,5.55
2019-05-22T08:06:07.120Z,4.90
2019-05-22T08:11:12.354Z,4.50
2019-05-22T08:16:17.096Z,5.40
2019-05-22T08:21:23.668Z,4.45
2019-05-22T08:26:28.491Z,4.50
2019-05-22T08:31:34.040Z,4.10
2019-05-22T08:36:39.200Z,4.15
2019-05-22T08:41:44.477Z,4.10
2019-05-22T08:46:48.634Z,4.10
2019-05-22T08:51:53.263Z,4.78
2019-05-22T08:56:58.983Z,5.05
2019-05-22T09:02:03.352Z,4.75
2019-05-22T09:07:07.997Z,4.87
2019-05-22T09:12:13.211Z,4.60
2019-05-22T09:17:17.859Z,4.60
2019-05-22T09:22:21.777Z,4.00
2019-05-22T09:27:25.734Z,4.00
2019-05-22T09:32:29.701Z,3.67
2019-05-22T09:37:34.344Z,3.17
2019-05-22T09:42:38.402Z,2.98
2019-05-22T09:47:42.653Z,3.20
2019-05-22T09:52:56.897Z,2.90
2019-05-22T09:57:53.565Z,3.02
2019-05-22T10:02:57.498Z,3.35
2019-05-22T10:08:02.361Z,3.85
2019-05-22T10:13:06.629Z,4.20
2019-05-22T10:18:11.270Z,4.00
2019-05-22T10:23:16.407Z,3.60
2019-05-22T10:28:20.628Z,3.15
2019-05-22T10:33:24.671Z,3.15
2019-05-22T10:38:28.724Z,3.17
2019-05-22T10:43:33.746Z,3.60
2019-05-22T10:48:40.218Z,4.15
2019-05-22T10:53:43.288Z,5.03
2019-05-22T10:58:47.449Z,4.10
2019-05-22T11:03:51.615Z,4.30
2019-05-22T11:08:55.678Z,4.30
2019-05-22T11:14:02.209Z,4.65
2019-05-22T11:19:07.290Z,4.20
2019-05-22T11:24:11.274Z,4.33
2019-05-22T11:29:15.877Z,3.83
2019-05-22T11:34:20.310Z,4.80
2019-05-22T11:39:38.503Z,5.12
2019-05-22T11:44:32.260Z,4.83
2019-05-22T11:49:36.510Z,4.08
2019-05-22T11:54:40.756Z,4.12
2019-05-22T11:59:45.304Z,4.50
2019-05-22T12:04:49.256Z,4.70
2019-05-22T12:09:53.775Z,5.50
2019-05-22T12:14:57.747Z,4.35
2019-05-22T12:20:02.341Z,3.60
2019-05-22T12:25:10.732Z,3.80
2019-05-22T12:30:16.043Z,3.95
2019-05-22T12:35:20.729Z,4.15
2019-05-22T12:40:25.345Z,4.47
2019-05-22T12:45:30.696Z,5.20
2019-05-22T12:50:35.319Z,5.40
2019-05-22T12:55:39.870Z,5.60
2019-05-22T13:00:44.209Z,3.83
2019-05-22T13:05:49.975Z,3.47
2019-05-22T13:10:54.508Z,3.80
2019-05-22T13:16:00.736Z,4.08
2019-05-22T13:21:06.770Z,4.20
2019-05-22T13:26:10.923Z,4.12
2019-05-22T13:31:15.790Z,3.95
2019-05-22T13:36:20.526Z,4.70
2019-05-22T13:41:24.554Z,5.37
2019-05-22T13:46:30.604Z,5.83
2019-05-22T13:51:35.319Z,5.92
2019-05-22T13:56:40.513Z,5.08
2019-05-22T14:01:44.542Z,5.40
2019-05-22T14:06:49.035Z,5.25
2019-05-22T14:11:54.532Z,3.85
2019-05-22T14:16:58.938Z,3.55
2019-05-22T14:22:02.904Z,3.25
2019-05-22T14:27:07.034Z,3.55
2019-05-22T14:32:11.983Z,3.22
2019-05-22T14:37:16.414Z,3.40
2019-05-22T14:42:20.619Z,3.67
2019-05-22T14:47:24.743Z,3.65
2019-05-22T14:52:29.604Z,4.00
2019-05-22T14:57:33.555Z,3.27
2019-05-22T15:02:37.555Z,3.15
2019-05-22T15:07:41.638Z,3.08
2019-05-22T15:12:49.158Z,3.40
2019-05-22T15:17:53.625Z,3.72
2019-05-22T15:22:57.975Z,3.98
2019-05-22T15:28:03.036Z,3.90
2019-05-22T15:33:07.364Z,4.17
2019-05-22T15:38:12.907Z,4.50
2019-05-22T15:43:17.342Z,4.65
2019-05-22T15:48:30.200Z,4.70
2019-05-22T15:53:36.086Z,4.47
2019-05-22T15:58:43.976Z,3.83
2019-05-22T16:03:48.818Z,4.08
2019-05-22T16:08:54.070Z,4.70
2019-05-22T16:14:00.130Z,4.25
2019-05-22T16:19:07.885Z,4.03
2019-05-22T16:24:14.000Z,3.80
2019-05-22T16:29:18.721Z,3.30
2019-05-22T16:34:23.120Z,3.20
2019-05-22T16:39:28.048Z,3.02
2019-05-22T16:44:32.416Z,3.40
2019-05-22T16:49:38.159Z,2.77
2019-05-22T16:54:43.195Z,3.37
2019-05-22T16:59:47.538Z,3.10
2019-05-22T17:04:52.680Z,3.20
2019-05-22T17:09:56.874Z,3.50
2019-05-22T17:15:01.852Z,3.25
2019-05-22T17:20:09.214Z,3.55
2019-05-22T17:25:14.635Z,5.85
2019-05-22T17:30:21.640Z,4.10
2019-05-22T17:35:27.085Z,3.65
2019-05-22T17:40:32.973Z,3.30
2019-05-22T17:45:38.785Z,3.77
2019-05-22T17:50:44.774Z,4.00
2019-05-22T17:55:49.965Z,5.08
2019-05-22T18:00:54.686Z,4.50
2019-05-22T18:05:59.087Z,5.03
2019-05-22T18:11:07.602Z,5.05
2019-05-22T18:16:11.926Z,6.60
2019-05-22T18:21:15.858Z,8.28
2019-05-22T18:26:20.229Z,11.20
2019-05-22T18:31:24.377Z,12.53
2019-05-22T18:36:28.558Z,5.90
2019-05-22T18:41:32.715Z,8.63
2019-05-22T18:46:36.876Z,6.87
2019-05-22T18:51:40.926Z,6.30
2019-05-22T18:56:45.331Z,6.47
2019-05-22T19:01:49.489Z,9.95
2019-05-22T19:06:55.887Z,9.53
2019-05-22T19:11:59.574Z,6.37
2019-05-22T19:17:04.107Z,5.50
2019-05-22T19:22:08.346Z,6.00
2019-05-22T19:27:12.294Z,10.10
2019-05-22T19:32:17.115Z,8.93
2019-05-22T19:37:21.345Z,9.33
2019-05-22T19:42:25.527Z,10.58
2019-05-22T19:47:29.696Z,9.55
2019-05-22T19:52:41.603Z,9.63
2019-05-22T19:57:42.875Z,8.05
2019-05-22T20:02:50.630Z,7.60
2019-05-22T20:07:54.258Z,7.10
2019-05-22T20:12:59.105Z,7.95
2019-05-22T20:18:04.288Z,8.18
2019-05-22T20:23:09.431Z,7.80
2019-05-22T20:28:14.774Z,8.38
2019-05-22T20:33:19.365Z,9.30
2019-05-22T20:38:23.893Z,8.13
2019-05-22T20:43:29.424Z,7.97
2019-05-22T20:48:35.052Z,7.95
2019-05-22T20:53:52.905Z,9.08
2019-05-22T20:58:45.609Z,7.92
2019-05-22T21:03:50.616Z,8.28
2019-05-22T21:08:54.775Z,7.42
2019-05-22T21:13:59.315Z,8.88
2019-05-22T21:19:04.399Z,11.45
2019-05-22T21:24:11.875Z,12.45
2019-05-22T21:29:15.069Z,8.45
2019-05-22T21:34:20.349Z,6.97
2019-05-22T21:39:24.606Z,6.30
2019-05-22T21:44:28.665Z,6.97
2019-05-22T21:49:33.400Z,7.37
2019-05-22T21:54:37.960Z,9.03
2019-05-22T21:59:42.675Z,7.83
2019-05-22T22:04:46.793Z,7.47
2019-05-22T22:09:51.820Z,11.80
2019-05-22T22:14:55.969Z,12.88
2019-05-22T22:19:59.921Z,10.58
2019-05-22T22:25:05.242Z,10.10
2019-05-22T22:30:13.802Z,9.33
2019-05-22T22:35:18.540Z,9.40
2019-05-22T22:40:24.449Z,8.48
2019-05-22T22:45:41.978Z,9.28
2019-05-22T22:50:46.269Z,8.40
2019-05-22T22:55:50.502Z,8.45
2019-05-22T23:00:56.258Z,9.75
2019-05-22T23:06:01.203Z,12.30
2019-05-22T23:11:05.734Z,14.15
2019-05-22T23:16:11.967Z,12.75
2019-05-22T23:21:16.423Z,12.30
2019-05-22T23:26:21.567Z,12.53
2019-05-22T23:31:26.650Z,11.08
2019-05-22T23:36:31.000Z,12.25
2019-05-22T23:41:37.254Z,12.98
2019-05-22T23:46:43.217Z,13.68
2019-05-22T23:51:48.668Z,13.53
2019-05-22T23:56:54.325Z,15.28
